createdAt,value
2019-04-30T00:01:39.801Z,2.10
2019-04-30T00:04:06.562Z,2.10
2019-04-30T00:06:37.697Z,2.10
2019-04-30T00:09:00.992Z,2.10
2019-04-30T00:11:27.759Z,2.10
2019-04-30T00:13:55.359Z,2.10
2019-04-30T00:16:22.115Z,2.20
2019-04-30T00:18:59.917Z,2.20
2019-04-30T00:21:18.701Z,2.20
2019-04-30T00:23:45.926Z,2.20
2019-04-30T00:26:11.574Z,2.20
2019-04-30T00:28:39.479Z,2.20
2019-04-30T00:31:05.513Z,2.20
2019-04-30T00:33:32.571Z,2.20
2019-04-30T00:36:00.000Z,2.20
2019-04-30T00:38:29.575Z,2.20
2019-04-30T00:40:55.722Z,2.20
2019-04-30T00:43:21.169Z,2.20
2019-04-30T00:45:48.613Z,2.20
2019-04-30T00:48:19.333Z,2.20
2019-04-30T00:50:42.264Z,2.30
2019-04-30T00:53:12.283Z,2.30
2019-04-30T00:55:38.134Z,2.30
2019-04-30T00:58:02.715Z,2.30
2019-04-30T01:00:29.758Z,2.30
2019-04-30T01:05:52.380Z,2.30
2019-04-30T01:08:21.222Z,2.40
2019-04-30T01:10:46.112Z,2.30
2019-04-30T01:13:12.818Z,2.20
2019-04-30T01:15:39.619Z,2.10
2019-04-30T01:18:06.363Z,2.10
2019-04-30T01:20:33.875Z,2.00
2019-04-30T01:23:03.056Z,2.00
2019-04-30T01:25:28.841Z,2.10
2019-04-30T01:27:54.380Z,2.00
2019-04-30T01:30:22.708Z,2.00
2019-04-30T01:32:52.151Z,2.00
2019-04-30T01:35:14.972Z,2.00
2019-04-30T01:37:42.396Z,2.00
2019-04-30T01:40:13.542Z,2.00
2019-04-30T01:42:36.081Z,2.00
2019-04-30T01:45:02.810Z,2.00
2019-04-30T01:47:31.208Z,1.90
2019-04-30T01:50:03.057Z,1.90
2019-04-30T01:52:23.142Z,1.90
2019-04-30T01:54:49.888Z,1.90
2019-04-30T01:57:22.716Z,1.80
2019-04-30T01:59:56.151Z,1.80
2019-04-30T02:02:22.960Z,1.80
2019-04-30T02:04:49.691Z,1.80
2019-04-30T02:07:18.987Z,2.00
2019-04-30T02:09:44.089Z,1.90
2019-04-30T02:12:10.817Z,1.90
2019-04-30T02:14:39.491Z,2.00
2019-04-30T02:17:05.921Z,2.00
2019-04-30T02:19:32.719Z,2.00
2019-04-30T02:21:59.421Z,2.00
2019-04-30T02:24:26.149Z,2.10
2019-04-30T02:26:52.903Z,2.10
2019-04-30T02:29:20.361Z,2.10
2019-04-30T02:31:50.123Z,2.10
2019-04-30T02:34:21.726Z,2.10
2019-04-30T02:36:46.257Z,2.10
2019-04-30T02:39:13.047Z,2.10
2019-04-30T02:41:41.196Z,2.00
2019-04-30T02:44:06.656Z,2.00
2019-04-30T02:46:34.228Z,2.00
2019-04-30T02:49:00.952Z,2.00
2019-04-30T02:51:29.944Z,2.00
2019-04-30T02:56:51.001Z,2.10
2019-04-30T02:59:20.265Z,2.30
2019-04-30T03:01:45.413Z,2.30
2019-04-30T03:04:12.116Z,2.30
2019-04-30T03:06:40.282Z,2.30
2019-04-30T03:09:05.711Z,2.40
2019-04-30T03:11:32.394Z,2.40
2019-04-30T03:13:59.366Z,2.50
2019-04-30T03:16:30.284Z,2.50
2019-04-30T03:18:59.406Z,2.60
2019-04-30T03:21:31.919Z,2.70
2019-04-30T03:23:57.088Z,2.80
2019-04-30T03:26:23.820Z,2.80
2019-04-30T03:28:50.598Z,2.70
2019-04-30T03:31:21.963Z,2.70
2019-04-30T03:33:44.262Z,2.70
2019-04-30T03:36:12.611Z,2.80
2019-04-30T03:38:39.679Z,2.80
2019-04-30T03:41:04.488Z,2.90
2019-04-30T03:43:31.201Z,3.00
2019-04-30T03:45:59.336Z,3.00
2019-04-30T03:48:25.560Z,3.00
2019-04-30T03:50:56.808Z,3.00
2019-04-30T03:53:20.258Z,3.00
2019-04-30T03:55:45.850Z,3.10
2019-04-30T03:58:12.597Z,3.30
2019-04-30T04:00:54.307Z,3.60
2019-04-30T04:03:20.997Z,3.90
2019-04-30T04:05:49.811Z,4.20
2019-04-30T04:08:23.051Z,4.30
2019-04-30T04:10:53.005Z,4.30
2019-04-30T04:13:19.805Z,4.40
2019-04-30T04:15:46.111Z,4.40
2019-04-30T04:18:12.854Z,4.50
2019-04-30T04:20:42.882Z,4.50
2019-04-30T04:23:06.471Z,4.50
2019-04-30T04:25:33.185Z,4.50
2019-04-30T04:28:00.419Z,4.50
2019-04-30T04:30:26.694Z,4.70
2019-04-30T04:32:53.435Z,5.30
2019-04-30T04:35:20.140Z,5.90
2019-04-30T04:37:48.993Z,6.30
2019-04-30T04:40:14.447Z,7.30
2019-04-30T04:42:41.227Z,7.30
2019-04-30T04:45:09.836Z,7.40
2019-04-30T04:47:34.692Z,6.90
2019-04-30T04:50:01.448Z,7.00
2019-04-30T04:52:31.130Z,8.00
2019-04-30T04:54:55.025Z,9.00
2019-04-30T04:57:23.018Z,10.50
2019-04-30T04:59:49.849Z,11.30
2019-04-30T05:05:12.700Z,13.00
2019-04-30T05:07:40.123Z,14.10
2019-04-30T05:10:09.437Z,16.20
2019-04-30T05:12:37.938Z,16.10
2019-04-30T05:15:03.101Z,16.50
2019-04-30T05:17:32.058Z,16.20
2019-04-30T05:19:58.607Z,17.70
2019-04-30T05:22:23.637Z,16.60
2019-04-30T05:24:50.344Z,17.50
2019-04-30T05:27:19.707Z,17.80
2019-04-30T05:29:44.719Z,17.80
2019-04-30T05:32:11.418Z,17.10
2019-04-30T05:34:38.579Z,17.90
2019-04-30T05:37:05.014Z,18.50
2019-04-30T05:39:31.867Z,18.60
2019-04-30T05:41:58.965Z,18.70
2019-04-30T05:44:25.382Z,19.50
2019-04-30T05:46:52.133Z,20.00
2019-04-30T05:49:20.506Z,21.00
2019-04-30T05:51:54.889Z,21.00
2019-04-30T05:54:29.172Z,20.60
2019-04-30T05:56:54.824Z,20.40
2019-04-30T05:59:21.538Z,20.60
2019-04-30T06:01:50.680Z,20.70
2019-04-30T06:04:15.195Z,20.10
2019-04-30T06:06:42.723Z,20.80
2019-04-30T06:09:18.736Z,20.80
2019-04-30T06:11:40.917Z,19.80
2019-04-30T06:14:13.854Z,19.00
2019-04-30T06:16:40.577Z,20.60
2019-04-30T06:19:08.427Z,21.20
2019-04-30T06:21:34.085Z,22.40
2019-04-30T06:24:00.787Z,22.80
2019-04-30T06:26:29.555Z,22.60
2019-04-30T06:28:55.071Z,22.50
2019-04-30T06:31:31.879Z,23.70
2019-04-30T06:33:48.783Z,24.70
2019-04-30T06:36:16.241Z,25.20
2019-04-30T06:38:42.974Z,25.20
2019-04-30T06:41:10.505Z,24.70
2019-04-30T06:43:38.669Z,24.70
2019-04-30T06:46:04.069Z,24.10
2019-04-30T06:48:30.787Z,24.70
2019-04-30T06:50:59.132Z,23.50
2019-04-30T06:53:24.367Z,24.20
2019-04-30T06:55:51.049Z,25.40
2019-04-30T06:58:20.528Z,22.40
2019-04-30T07:00:46.070Z,22.40
2019-04-30T07:03:12.809Z,22.80
2019-04-30T07:05:39.589Z,22.80
2019-04-30T07:08:13.182Z,23.70
2019-04-30T07:10:52.908Z,24.20
2019-04-30T07:13:08.808Z,24.10
2019-04-30T07:15:35.258Z,22.70
2019-04-30T07:18:02.690Z,23.10
2019-04-30T07:20:33.929Z,24.80
2019-04-30T07:25:24.417Z,26.00
2019-04-30T07:27:51.095Z,28.00
2019-04-30T07:30:19.230Z,27.10
2019-04-30T07:32:46.076Z,24.70
2019-04-30T07:35:12.886Z,24.70
2019-04-30T07:37:39.601Z,24.20
2019-04-30T07:40:06.411Z,24.90
2019-04-30T07:42:38.150Z,24.10
2019-04-30T07:45:00.683Z,25.10
2019-04-30T07:47:29.407Z,26.20
2019-04-30T07:49:55.955Z,25.10
2019-04-30T07:52:22.003Z,25.00
2019-04-30T07:54:51.502Z,24.50
2019-04-30T07:57:14.611Z,25.50
2019-04-30T07:59:41.299Z,27.50
2019-04-30T08:02:13.885Z,27.10
2019-04-30T08:04:52.578Z,25.90
2019-04-30T08:07:20.104Z,24.50
2019-04-30T08:09:34.154Z,26.10
2019-04-30T08:09:46.190Z,22.60
2019-04-30T08:12:22.004Z,22.90
2019-04-30T08:14:40.447Z,22.60
2019-04-30T08:17:08.809Z,22.50
2019-04-30T08:19:33.995Z,22.00
2019-04-30T08:22:00.683Z,21.30
2019-04-30T08:24:29.171Z,22.70
2019-04-30T08:26:55.041Z,22.60
2019-04-30T08:29:21.724Z,22.00
2019-04-30T08:31:49.168Z,24.20
2019-04-30T08:34:15.868Z,24.20
2019-04-30T08:36:42.574Z,24.60
2019-04-30T08:39:10.067Z,23.80
2019-04-30T08:41:36.747Z,23.70
2019-04-30T08:44:04.351Z,25.00
2019-04-30T08:46:31.015Z,24.90
2019-04-30T08:48:58.865Z,24.90
2019-04-30T08:51:25.285Z,24.90
2019-04-30T08:53:52.144Z,22.90
2019-04-30T08:56:21.580Z,23.50
2019-04-30T08:58:45.706Z,23.50
2019-04-30T09:01:12.440Z,22.60
2019-04-30T09:03:39.363Z,21.90
2019-04-30T09:06:06.030Z,22.00
2019-04-30T09:08:32.852Z,21.60
2019-04-30T09:11:00.446Z,20.30
2019-04-30T09:13:28.649Z,20.30
2019-04-30T09:15:54.650Z,19.90
2019-04-30T09:18:21.424Z,19.80
2019-04-30T09:20:49.538Z,19.30
2019-04-30T09:23:14.923Z,19.50
2019-04-30T09:25:41.652Z,19.80
2019-04-30T09:28:08.665Z,20.70
2019-04-30T09:30:35.157Z,21.40
2019-04-30T09:33:01.932Z,20.50
2019-04-30T09:35:31.779Z,19.80
2019-04-30T09:38:01.176Z,19.00
2019-04-30T09:40:22.220Z,18.30
2019-04-30T09:42:48.881Z,18.20
2019-04-30T09:45:15.679Z,18.10
2019-04-30T09:47:43.166Z,17.60
2019-04-30T09:50:09.937Z,17.60
2019-04-30T09:52:39.223Z,17.20
2019-04-30T09:55:04.259Z,16.60
2019-04-30T09:57:31.013Z,16.60
2019-04-30T09:59:57.680Z,16.50
2019-04-30T10:02:25.165Z,16.40
2019-04-30T10:04:52.270Z,16.40
2019-04-30T10:07:19.533Z,16.30
2019-04-30T10:09:45.707Z,16.40
2019-04-30T10:12:14.195Z,16.40
2019-04-30T10:14:41.110Z,16.40
2019-04-30T10:17:13.935Z,16.40
2019-04-30T10:19:40.704Z,16.20
2019-04-30T10:22:08.975Z,15.90
2019-04-30T10:24:34.982Z,15.20
2019-04-30T10:27:01.757Z,15.10
2019-04-30T10:29:29.358Z,14.00
2019-04-30T10:31:56.118Z,13.90
2019-04-30T10:34:22.827Z,13.90
2019-04-30T10:36:49.814Z,14.10
2019-04-30T10:39:16.628Z,14.20
2019-04-30T10:41:43.585Z,14.50
2019-04-30T10:44:11.414Z,14.70
2019-04-30T10:46:39.356Z,14.60
2019-04-30T10:49:09.020Z,14.90
2019-04-30T10:51:38.815Z,15.70
2019-04-30T10:54:05.350Z,16.10
2019-04-30T10:56:32.533Z,16.10
2019-04-30T10:59:00.452Z,16.00
2019-04-30T11:01:29.056Z,16.00
2019-04-30T11:03:54.932Z,15.90
2019-04-30T11:06:22.197Z,15.50
2019-04-30T11:08:49.760Z,15.90
2019-04-30T11:11:16.652Z,16.20
2019-04-30T11:13:43.764Z,16.20
2019-04-30T11:16:14.759Z,16.50
2019-04-30T11:18:39.758Z,16.70
2019-04-30T11:21:09.173Z,16.80
2019-04-30T11:23:34.637Z,16.70
2019-04-30T11:26:02.128Z,16.40
2019-04-30T11:28:29.222Z,16.30
2019-04-30T11:31:11.281Z,16.10
2019-04-30T11:33:38.767Z,15.90
2019-04-30T11:36:06.635Z,16.60
2019-04-30T11:38:34.841Z,16.50
2019-04-30T11:41:03.025Z,16.70
2019-04-30T11:43:29.985Z,16.60
2019-04-30T11:48:58.575Z,16.40
2019-04-30T11:51:26.936Z,15.50
2019-04-30T11:53:52.018Z,15.60
2019-04-30T11:56:19.260Z,15.50
2019-04-30T11:58:46.150Z,15.60
2019-04-30T12:01:14.090Z,15.00
2019-04-30T12:03:41.060Z,14.30
2019-04-30T12:06:08.583Z,14.00
2019-04-30T12:11:33.915Z,14.00
2019-04-30T12:14:01.069Z,14.00
2019-04-30T12:16:29.106Z,13.60
2019-04-30T12:18:56.020Z,13.60
2019-04-30T12:21:22.952Z,13.60
2019-04-30T12:23:51.548Z,13.30
2019-04-30T12:26:19.078Z,13.30
2019-04-30T12:28:46.486Z,13.70
2019-04-30T12:31:14.103Z,14.10
2019-04-30T12:33:41.044Z,14.10
2019-04-30T12:36:09.053Z,14.20
2019-04-30T12:38:35.067Z,14.10
2019-04-30T12:41:02.002Z,14.60
2019-04-30T12:43:28.745Z,14.80
2019-04-30T12:46:02.644Z,14.70
2019-04-30T12:48:37.182Z,14.70
2019-04-30T12:51:09.979Z,14.80
2019-04-30T12:53:37.615Z,14.20
2019-04-30T12:56:08.982Z,14.20
2019-04-30T12:58:34.175Z,14.20
2019-04-30T13:01:00.904Z,14.00
2019-04-30T13:03:28.400Z,13.80
2019-04-30T13:05:55.786Z,14.30
2019-04-30T13:08:22.654Z,14.30
2019-04-30T13:10:49.525Z,14.60
2019-04-30T13:13:16.024Z,14.80
2019-04-30T13:15:42.557Z,15.00
2019-04-30T13:18:09.588Z,15.00
2019-04-30T13:20:36.243Z,15.20
2019-04-30T13:23:03.002Z,15.20
2019-04-30T13:25:35.216Z,15.40
2019-04-30T13:27:57.987Z,14.90
2019-04-30T13:30:25.672Z,15.40
2019-04-30T13:33:09.482Z,15.40
2019-04-30T13:35:35.235Z,15.10
2019-04-30T13:38:02.844Z,15.10
2019-04-30T13:40:35.239Z,14.40
2019-04-30T13:43:02.099Z,14.30
2019-04-30T13:45:28.873Z,14.30
2019-04-30T13:47:55.540Z,13.90
2019-04-30T13:50:22.336Z,14.10
2019-04-30T13:52:49.084Z,14.30
2019-04-30T13:55:15.843Z,14.20
2019-04-30T13:57:43.299Z,14.30
2019-04-30T14:00:10.081Z,14.30
2019-04-30T14:02:37.668Z,14.40
2019-04-30T14:05:04.481Z,14.40
2019-04-30T14:07:39.967Z,14.20
2019-04-30T14:10:04.835Z,14.20
2019-04-30T14:12:31.619Z,13.90
2019-04-30T14:14:59.210Z,13.60
2019-04-30T14:17:26.206Z,13.70
2019-04-30T14:19:52.960Z,13.70
2019-04-30T14:22:19.870Z,13.80
2019-04-30T14:24:46.696Z,14.00
2019-04-30T14:27:14.361Z,14.20
2019-04-30T14:29:41.203Z,14.20
2019-04-30T14:32:08.791Z,13.90
2019-04-30T14:34:35.527Z,13.90
2019-04-30T14:37:02.406Z,13.70
2019-04-30T14:39:29.419Z,13.70
2019-04-30T14:41:56.587Z,13.70
2019-04-30T14:44:23.393Z,13.80
2019-04-30T14:46:50.808Z,13.70
2019-04-30T14:52:14.838Z,13.70
2019-04-30T14:54:46.344Z,13.80
2019-04-30T14:57:16.299Z,13.80
2019-04-30T15:02:37.384Z,13.80
2019-04-30T15:05:05.086Z,13.80
2019-04-30T15:07:31.858Z,13.60
2019-04-30T15:09:58.727Z,13.60
2019-04-30T15:12:25.893Z,13.60
2019-04-30T15:14:52.716Z,13.60
2019-04-30T15:17:19.482Z,13.80
2019-04-30T15:19:49.759Z,13.70
2019-04-30T15:22:14.064Z,13.60
2019-04-30T15:24:40.842Z,13.70
2019-04-30T15:27:09.263Z,13.80
2019-04-30T15:29:34.493Z,13.90
2019-04-30T15:32:01.272Z,13.90
2019-04-30T15:34:29.351Z,13.70
2019-04-30T15:36:55.708Z,13.60
2019-04-30T15:39:24.365Z,13.60
2019-04-30T15:41:51.323Z,13.70
2019-04-30T15:44:19.863Z,13.50
2019-04-30T15:46:46.670Z,13.50
2019-04-30T15:49:13.440Z,13.50
2019-04-30T15:51:40.182Z,13.50
2019-04-30T15:54:06.963Z,13.30
2019-04-30T15:56:37.672Z,13.40
2019-04-30T15:59:09.028Z,13.40
2019-04-30T16:01:34.251Z,13.50
2019-04-30T16:04:01.051Z,13.50
2019-04-30T16:06:28.578Z,13.50
2019-04-30T16:08:58.707Z,13.50
2019-04-30T16:11:29.508Z,13.40
2019-04-30T16:14:02.325Z,13.50
2019-04-30T16:16:29.129Z,13.50
2019-04-30T16:18:58.668Z,13.40
2019-04-30T16:21:23.688Z,13.30
2019-04-30T16:23:50.481Z,13.30
2019-04-30T16:26:17.969Z,13.20
2019-04-30T16:28:45.446Z,13.20
2019-04-30T16:31:12.297Z,13.20
2019-04-30T16:33:39.434Z,13.30
2019-04-30T16:36:06.087Z,13.20
2019-04-30T16:38:33.689Z,13.00
2019-04-30T16:41:00.488Z,13.10
2019-04-30T16:43:29.797Z,13.10
2019-04-30T16:45:54.117Z,13.10
2019-04-30T16:48:21.595Z,13.00
2019-04-30T16:50:48.894Z,13.00
2019-04-30T16:53:15.161Z,13.00
2019-04-30T16:55:42.245Z,12.80
2019-04-30T16:58:09.092Z,12.80
2019-04-30T17:00:36.615Z,12.80
2019-04-30T17:03:03.557Z,12.80
2019-04-30T17:05:31.139Z,12.80
2019-04-30T17:07:59.240Z,12.60
2019-04-30T17:10:31.570Z,12.50
2019-04-30T17:12:59.990Z,12.50
2019-04-30T17:15:26.852Z,12.50
2019-04-30T17:17:53.698Z,12.40
2019-04-30T17:20:21.263Z,12.30
2019-04-30T17:22:49.638Z,12.30
2019-04-30T17:25:14.848Z,12.20
2019-04-30T17:27:41.535Z,12.20
2019-04-30T17:30:09.327Z,12.10
2019-04-30T17:32:35.155Z,12.00
2019-04-30T17:35:01.864Z,12.00
2019-04-30T17:37:31.471Z,11.90
2019-04-30T17:39:56.458Z,11.80
2019-04-30T17:42:23.214Z,11.80
2019-04-30T17:44:58.395Z,11.70
2019-04-30T17:47:18.753Z,11.60
2019-04-30T17:49:43.536Z,11.50
2019-04-30T17:52:10.256Z,11.40
2019-04-30T17:54:37.643Z,11.30
2019-04-30T17:57:04.424Z,11.30
2019-04-30T17:59:31.118Z,11.20
2019-04-30T18:01:59.500Z,11.10
2019-04-30T18:04:24.797Z,11.00
2019-04-30T18:06:51.968Z,11.00
2019-04-30T18:09:19.168Z,10.80
2019-04-30T18:11:46.012Z,10.80
2019-04-30T18:14:13.562Z,10.60
2019-04-30T18:16:41.054Z,10.50
2019-04-30T18:19:08.888Z,10.50
2019-04-30T18:21:35.641Z,10.40
2019-04-30T18:27:01.317Z,10.10
2019-04-30T18:29:28.056Z,10.10
2019-04-30T18:31:54.800Z,9.90
2019-04-30T18:34:21.777Z,9.80
2019-04-30T18:36:51.254Z,9.60
2019-04-30T18:39:18.792Z,9.50
2019-04-30T18:41:43.722Z,9.40
2019-04-30T18:44:11.236Z,9.20
2019-04-30T18:46:39.024Z,9.10
2019-04-30T18:49:05.187Z,9.00
2019-04-30T18:51:39.199Z,8.90
2019-04-30T18:54:00.240Z,8.70
2019-04-30T18:56:29.010Z,8.50
2019-04-30T18:58:54.783Z,8.50
2019-04-30T19:01:21.865Z,8.40
2019-04-30T19:03:49.276Z,8.20
2019-04-30T19:06:25.294Z,8.20
2019-04-30T19:08:52.792Z,8.00
2019-04-30T19:11:20.973Z,8.00
2019-04-30T19:14:09.543Z,7.90
2019-04-30T19:16:41.894Z,7.80
2019-04-30T19:19:09.443Z,7.70
2019-04-30T19:21:35.306Z,7.60
2019-04-30T19:24:02.029Z,7.50
2019-04-30T19:26:29.276Z,7.50
2019-04-30T19:28:56.438Z,7.30
2019-04-30T19:31:23.155Z,7.30
2019-04-30T19:33:51.549Z,7.20
2019-04-30T19:36:20.882Z,7.10
2019-04-30T19:38:48.479Z,7.00
2019-04-30T19:41:14.671Z,7.00
2019-04-30T19:43:41.851Z,6.90
2019-04-30T19:46:10.636Z,6.90
2019-04-30T19:48:37.526Z,6.80
2019-04-30T19:51:04.776Z,6.80
2019-04-30T19:53:31.768Z,6.70
2019-04-30T19:55:59.229Z,6.60
2019-04-30T19:58:46.422Z,6.60
2019-04-30T20:00:53.084Z,6.50
2019-04-30T20:03:20.070Z,6.50
2019-04-30T20:05:47.507Z,6.30
2019-04-30T20:08:14.977Z,6.20
2019-04-30T20:10:42.487Z,6.20
2019-04-30T20:13:10.811Z,6.10
2019-04-30T20:15:38.779Z,6.00
2019-04-30T20:18:03.614Z,6.00
2019-04-30T20:20:30.351Z,6.00
2019-04-30T20:22:57.219Z,5.90
2019-04-30T20:25:24.107Z,5.90
2019-04-30T20:27:51.510Z,5.80
2019-04-30T20:30:19.526Z,5.80
2019-04-30T20:32:45.168Z,5.80
2019-04-30T20:35:11.962Z,5.80
2019-04-30T20:37:45.442Z,5.80
2019-04-30T20:40:12.383Z,5.70
2019-04-30T20:42:40.137Z,5.70
2019-04-30T20:45:08.978Z,5.50
2019-04-30T20:47:34.961Z,5.50
2019-04-30T20:50:02.316Z,5.50
2019-04-30T20:52:29.118Z,5.50
2019-04-30T20:54:55.761Z,5.40
2019-04-30T20:57:22.645Z,5.40
2019-04-30T20:59:49.481Z,5.30
2019-04-30T21:02:16.426Z,5.30
2019-04-30T21:04:43.513Z,5.20
2019-04-30T21:07:10.327Z,5.20
2019-04-30T21:09:37.065Z,5.10
2019-04-30T21:12:03.929Z,5.10
2019-04-30T21:14:30.650Z,5.10
2019-04-30T21:16:57.343Z,5.00
2019-04-30T21:19:24.090Z,5.00
2019-04-30T21:21:50.831Z,5.00
2019-04-30T21:24:17.598Z,4.90
2019-04-30T21:26:44.372Z,4.90
2019-04-30T21:29:15.649Z,4.90
2019-04-30T21:31:44.045Z,4.90
2019-04-30T21:34:12.495Z,4.80
2019-04-30T21:36:39.549Z,4.80
2019-04-30T21:39:06.201Z,4.80
2019-04-30T21:41:32.878Z,4.80
2019-04-30T21:43:59.585Z,4.70
2019-04-30T21:46:29.337Z,4.70
2019-04-30T21:48:54.927Z,4.70
2019-04-30T21:51:21.636Z,4.70
2019-04-30T21:53:50.421Z,4.60
2019-04-30T21:56:16.086Z,4.50
2019-04-30T21:58:43.576Z,4.50
2019-04-30T22:01:20.628Z,4.40
2019-04-30T22:03:47.982Z,4.30
2019-04-30T22:06:15.592Z,4.30
2019-04-30T22:08:43.856Z,4.30
2019-04-30T22:11:11.580Z,4.30
2019-04-30T22:13:39.639Z,4.30
2019-04-30T22:16:07.062Z,4.20
2019-04-30T22:18:34.471Z,4.20
2019-04-30T22:21:02.077Z,4.20
2019-04-30T22:23:30.083Z,4.20
2019-04-30T22:25:57.718Z,4.20
2019-04-30T22:28:24.850Z,4.10
2019-04-30T22:30:52.875Z,4.10
2019-04-30T22:33:20.423Z,4.00
2019-04-30T22:35:47.882Z,4.00
2019-04-30T22:41:08.766Z,4.00
2019-04-30T22:43:34.738Z,4.00
2019-04-30T22:46:09.789Z,3.90
2019-04-30T22:48:36.412Z,3.90
2019-04-30T22:51:04.277Z,3.90
2019-04-30T22:53:32.354Z,3.90
2019-04-30T22:56:00.110Z,3.90
2019-04-30T22:58:28.051Z,3.80
2019-04-30T23:01:00.353Z,3.80
2019-04-30T23:03:28.651Z,3.70
2019-04-30T23:05:56.436Z,3.60
2019-04-30T23:08:24.059Z,3.60
2019-04-30T23:10:51.075Z,3.60
2019-04-30T23:13:19.263Z,3.50
2019-04-30T23:15:47.672Z,3.50
2019-04-30T23:18:16.654Z,3.50
2019-04-30T23:20:46.178Z,3.40
2019-04-30T23:23:13.127Z,3.40
2019-04-30T23:25:40.352Z,3.40
2019-04-30T23:28:07.493Z,3.30
2019-04-30T23:30:36.418Z,3.20
2019-04-30T23:33:05.480Z,3.20
2019-04-30T23:35:32.882Z,3.20
2019-04-30T23:38:01.121Z,3.20
2019-04-30T23:40:30.728Z,3.20
2019-04-30T23:42:59.826Z,3.10
2019-04-30T23:45:28.409Z,3.10
2019-04-30T23:47:56.483Z,3.00
2019-04-30T23:50:24.498Z,3.10
2019-04-30T23:52:51.796Z,3.00
2019-04-30T23:55:21.925Z,3.10
2019-04-30T23:57:49.584Z,3.00
